Time;durP1;ratioP1;P1;durP2;ratioP2;P2;SDS_P1;SDS_P2;PMS_P1;PMS_P2;Temp;Humidity;BMP_temperature;BMP_pressure;BME280_temperature;BME280_humidity;BME280_pressure;Samples;Min_cycle;Max_cycle;Signal;HPM_P1;HPM_P2
2022/12/04 00:00:02;;;;;;;78.40;30.82;;;;;;;0.20;95.78;101409.97;1744274;82;27431;-54
2022/12/04 00:02:30;;;;;;;83.05;32.73;;;;;;;0.18;95.63;101409.66;1744224;82;25625;-57
2022/12/04 00:04:56;;;;;;;85.57;33.08;;;;;;;0.18;95.55;101410.99;1744102;82;25590;-55
2022/12/04 00:07:22;;;;;;;89.77;32.65;;;;;;;0.18;95.59;101407.52;1744180;82;26031;-55
2022/12/04 00:09:48;;;;;;;88.20;32.33;;;;;;;0.21;95.62;101407.11;1744328;82;25370;-57
2022/12/04 00:12:14;;;;;;;85.05;32.70;;;;;;;0.22;95.68;101401.26;1744228;82;27327;-54
2022/12/04 00:14:40;;;;;;;76.90;31.35;;;;;;;0.23;95.60;101397.58;1744134;82;25472;-56
2022/12/04 00:17:07;;;;;;;76.95;30.88;;;;;;;0.24;95.62;101408.02;1744264;82;25635;-56
2022/12/04 00:19:33;;;;;;;88.80;33.05;;;;;;;0.25;95.54;101410.16;1744178;82;25599;-56
2022/12/04 00:21:59;;;;;;;77.15;32.05;;;;;;;0.25;95.61;101398.18;1744276;82;25650;-56
2022/12/04 00:24:25;;;;;;;72.90;30.82;;;;;;;0.24;95.60;101393.88;1744185;81;29466;-56
2022/12/04 00:26:51;;;;;;;79.80;31.27;;;;;;;0.24;95.63;101395.20;1744224;82;31405;-56
2022/12/04 00:29:18;;;;;;;76.33;29.37;;;;;;;0.23;95.58;101398.91;1744215;82;25396;-53
2022/12/04 00:31:44;;;;;;;74.42;28.95;;;;;;;0.23;95.58;101392.26;1744159;82;25444;-56
2022/12/04 00:34:11;;;;;;;70.62;29.65;;;;;;;0.23;95.63;101393.59;1744238;82;25610;-55
2022/12/04 00:36:37;;;;;;;74.82;30.92;;;;;;;0.22;95.72;101397.27;1744224;82;27272;-53
2022/12/04 00:39:05;;;;;;;76.45;28.90;;;;;;;0.21;95.69;101403.11;1744108;82;25546;-57
2022/12/04 00:41:32;;;;;;;74.17;31.97;;;;;;;0.20;95.78;101397.48;1744243;82;25638;-56
2022/12/04 00:44:01;;;;;;;76.12;30.43;;;;;;;0.21;95.77;101388.47;1744184;82;25875;-56
2022/12/04 00:46:29;;;;;;;69.05;28.38;;;;;;;0.22;95.79;101385.29;1744528;82;25409;-57
2022/12/04 00:48:55;;;;;;;81.72;30.00;;;;;;;0.20;95.78;101386.83;1744231;82;27915;-53
2022/12/04 00:51:24;;;;;;;71.47;29.63;;;;;;;0.22;95.88;101383.44;1744219;82;25551;-53
2022/12/04 00:53:52;;;;;;;75.65;30.20;;;;;;;0.23;95.90;101377.09;1744388;82;25545;-55
2022/12/04 00:56:25;;;;;;;79.60;31.82;;;;;;;0.23;95.90;101379.76;1744166;82;27481;-55
2022/12/04 00:58:54;;;;;;;71.45;30.08;;;;;;;0.24;95.93;101386.73;1744282;82;25647;-54
2022/12/04 01:01:23;;;;;;;74.53;28.90;;;;;;;0.23;95.88;101386.41;1744353;82;27503;-56
2022/12/04 01:03:51;;;;;;;71.17;28.67;;;;;;;0.23;95.97;101386.41;1744128;82;25526;-57
2022/12/04 01:06:24;;;;;;;72.15;29.20;;;;;;;0.22;95.90;101385.29;1744232;82;25645;-54
2022/12/04 01:08:53;;;;;;;69.70;28.30;;;;;;;0.22;95.97;101390.61;1744172;82;25428;-56
2022/12/04 01:11:23;;;;;;;74.45;28.80;;;;;;;0.21;95.94;101389.00;1744366;82;25397;-56
2022/12/04 01:13:50;;;;;;;79.82;29.60;;;;;;;0.21;95.93;101392.47;1744330;82;27313;-55
2022/12/04 01:16:24;;;;;;;66.82;27.30;;;;;;;0.24;95.97;101387.22;1744144;82;25433;-55
2022/12/04 01:18:51;;;;;;;75.08;28.02;;;;;;;0.23;95.99;101392.26;1744250;82;25440;-54
2022/12/04 01:21:19;;;;;;;66.12;25.88;;;;;;;0.22;95.92;101395.41;1744172;82;25577;-53
2022/12/04 01:23:47;;;;;;;67.55;27.93;;;;;;;0.22;96.18;101397.27;1744196;82;25566;-55
2022/12/04 01:26:14;;;;;;;72.27;27.05;;;;;;;0.20;96.09;101401.47;1744224;81;27357;-56
2022/12/04 01:28:41;;;;;;;69.95;28.40;;;;;;;0.20;96.07;101398.00;1744123;82;25775;-55
2022/12/04 01:31:15;;;;;;;68.20;27.82;;;;;;;0.20;96.30;101396.14;1744192;82;25520;-55
2022/12/04 01:33:42;;;;;;;62.95;25.75;;;;;;;0.20;96.23;101396.14;1744204;82;25464;-54
2022/12/04 01:36:14;;;;;;;69.15;26.85;;;;;;;0.20;96.24;101396.14;1744227;82;25446;-55
2022/12/04 01:38:41;;;;;;;70.40;27.62;;;;;;;0.21;96.28;101393.80;1744180;81;28011;-55
2022/12/04 01:41:09;;;;;;;66.40;26.77;;;;;;;0.21;96.32;101396.45;1744128;82;25553;-52
2022/12/04 01:43:38;;;;;;;65.83;28.03;;;;;;;0.23;96.36;101395.73;1744440;82;25413;-55
2022/12/04 01:46:06;;;;;;;71.30;27.40;;;;;;;0.25;96.32;101390.19;1744176;82;25864;-56
2022/12/04 01:48:40;;;;;;;72.67;27.58;;;;;;;0.25;96.26;101387.53;1744236;81;25453;-54
2022/12/04 01:51:24;;;;;;;68.33;27.93;;;;;;;0.28;96.26;101372.47;1744110;82;27286;-54
2022/12/04 01:53:58;;;;;;;70.50;26.77;;;;;;;0.28;96.24;101377.80;1744156;82;25468;-53
2022/12/04 01:56:30;;;;;;;67.17;27.37;;;;;;;0.27;96.17;101383.61;1743977;82;25614;-56
2022/12/04 01:58:59;;;;;;;67.45;28.02;;;;;;;0.24;96.28;101372.58;1743159;82;25634;-54
2022/12/04 02:01:30;;;;;;;69.60;27.00;;;;;;;0.23;96.19;101373.11;1744405;82;25564;-54
2022/12/04 02:03:59;;;;;;;63.90;26.02;;;;;;;0.23;96.31;101377.09;1741483;82;27330;-56
2022/12/04 02:06:25;;;;;;;61.92;26.23;;;;;;;0.21;96.23;101368.52;1710790;83;25458;-55
2022/12/04 02:08:52;;;;;;;61.70;24.43;;;;;;;0.20;96.29;101363.41;1710688;83;25540;-54
2022/12/04 02:11:30;;;;;;;54.73;24.40;;;;;;;0.18;96.30;101364.42;1710697;83;25595;-56
2022/12/04 02:14:05;;;;;;;64.62;25.12;;;;;;;0.16;96.37;101367.02;1710856;83;25658;-55
2022/12/04 02:17:09;;;;;;;60.78;24.02;;;;;;;0.15;96.46;101358.72;1710460;83;28101;-54
2022/12/04 02:19:50;;;;;;;59.63;23.52;;;;;;;0.13;96.39;101370.90;1710547;83;25498;-56
2022/12/04 02:22:31;;;;;;;60.28;24.25;;;;;;;0.14;96.50;101360.57;1710740;83;25422;-55
2022/12/04 02:25:12;;;;;;;62.38;24.45;;;;;;;0.13;96.51;101361.59;1710619;83;25599;-55
2022/12/04 02:27:44;;;;;;;59.23;23.60;;;;;;;0.14;96.59;101363.23;1618102;87;25741;-53
2022/12/04 02:30:14;;;;;;;58.58;23.90;;;;;;;0.15;96.57;101362.22;1640063;87;29532;-53
2022/12/04 02:33:04;;;;;;;62.45;24.63;;;;;;;0.16;96.61;101372.33;1640508;87;25883;-54
2022/12/04 02:35:39;;;;;;;61.13;24.60;;;;;;;0.18;96.64;101368.94;1640726;86;25604;-57
2022/12/04 02:38:17;;;;;;;67.25;26.05;;;;;;;0.20;96.61;101369.53;1640545;87;25702;-57
2022/12/04 02:40:56;;;;;;;68.92;26.25;;;;;;;0.21;96.59;101368.52;1640577;86;25525;-53
2022/12/04 02:43:28;;;;;;;63.17;25.08;;;;;;;0.22;96.58;101377.31;1640746;87;27350;-55
2022/12/04 02:46:00;;;;;;;62.73;24.70;;;;;;;0.22;96.49;101371.98;1640378;86;25932;-57
2022/12/04 02:48:30;;;;;;;73.40;27.50;;;;;;;0.22;96.52;101379.45;1640691;87;25472;-57
2022/12/04 02:50:59;;;;;;;63.50;26.33;;;;;;;0.21;96.59;101380.49;1640579;87;25654;-56
2022/12/04 02:53:31;;;;;;;64.77;25.15;;;;;;;0.21;96.66;101379.69;1640662;87;25624;-56
2022/12/04 02:56:09;;;;;;;66.77;26.17;;;;;;;0.20;96.54;101378.84;1640599;87;27416;-57
2022/12/04 02:58:57;;;;;;;69.85;26.25;;;;;;;0.21;96.58;101386.34;1640515;87;25456;-56
2022/12/04 03:01:28;;;;;;;64.13;24.40;;;;;;;0.19;96.55;101378.56;1640564;87;25550;-57
2022/12/04 03:04:03;;;;;;;62.95;26.10;;;;;;;0.20;96.64;101374.86;1618703;87;25675;-56
2022/12/04 03:06:33;;;;;;;67.03;26.45;;;;;;;0.21;96.71;101377.02;1710986;82;25623;-56
2022/12/04 03:09:08;;;;;;;68.57;25.35;;;;;;;0.19;96.57;101375.91;1710793;83;29536;-56
2022/12/04 03:11:37;;;;;;;64.47;25.15;;;;;;;0.18;96.59;101380.39;1710708;83;25577;-57
2022/12/04 03:14:23;;;;;;;60.65;25.62;;;;;;;0.18;96.63;101381.72;1710889;83;26980;-55
2022/12/04 03:16:54;;;;;;;64.95;26.35;;;;;;;0.21;96.73;101379.16;1709971;83;25513;-54
2022/12/04 03:19:25;;;;;;;64.05;25.10;;;;;;;0.22;96.88;101370.13;1710883;83;25467;-57
2022/12/04 03:21:58;;;;;;;67.25;27.37;;;;;;;0.21;96.69;101373.84;1710837;83;26998;-57
2022/12/04 03:24:28;;;;;;;69.70;27.22;;;;;;;0.21;96.69;101365.86;1710699;83;25485;-57
2022/12/04 03:27:21;;;;;;;67.58;27.10;;;;;;;0.22;96.71;101361.34;1710823;83;25578;-56
2022/12/04 03:30:05;;;;;;;63.20;25.97;;;;;;;0.24;96.73;101356.61;1709307;83;25836;-57
2022/12/04 03:32:37;;;;;;;77.32;28.35;;;;;;;0.25;96.70;101361.73;1710857;83;25399;-56
2022/12/04 03:35:09;;;;;;;68.30;26.37;;;;;;;0.24;96.58;101360.11;1710906;83;28300;-55
2022/12/04 03:38:01;;;;;;;71.75;26.73;;;;;;;0.23;96.62;101361.12;1710736;83;25755;-57
2022/12/04 03:40:38;;;;;;;68.87;25.35;;;;;;;0.22;96.49;101361.34;1710837;83;25413;-55
2022/12/04 03:43:09;;;;;;;60.20;24.50;;;;;;;0.18;96.46;101362.28;1710788;83;25603;-52
2022/12/04 03:45:50;;;;;;;65.80;25.32;;;;;;;0.15;96.49;101359.55;1710729;83;25563;-54
2022/12/04 03:48:24;;;;;;;66.35;24.50;;;;;;;0.16;96.52;101351.05;1710802;83;27331;-56
2022/12/04 03:51:27;;;;;;;67.30;24.12;;;;;;;0.15;96.51;101355.56;1710731;83;25383;-53
2022/12/04 03:53:59;;;;;;;58.65;23.77;;;;;;;0.13;96.49;101361.59;1710790;83;25592;-53
2022/12/04 03:56:33;;;;;;;57.48;23.55;;;;;;;0.10;96.54;101353.22;1710457;83;27007;-54
2022/12/04 03:59:08;;;;;;;61.88;24.00;;;;;;;0.08;96.55;101344.64;1710558;83;25409;-54
2022/12/04 04:01:39;;;;;;;59.65;24.15;;;;;;;0.07;96.49;101354.97;1710776;83;27402;-52
2022/12/04 04:04:11;;;;;;;60.15;24.77;;;;;;;0.06;96.57;101353.36;1710683;83;25454;-53
2022/12/04 04:06:43;;;;;;;51.92;21.95;;;;;;;0.06;96.52;101346.18;1741086;82;25551;-57
2022/12/04 04:09:15;;;;;;;54.85;22.58;;;;;;;0.05;96.48;101337.91;1744202;82;25404;-56
2022/12/04 04:11:55;;;;;;;59.42;23.55;;;;;;;0.08;96.56;101334.00;1744304;82;25478;-54
2022/12/04 04:25:41;;;;;;;58.73;23.22;;;;;;;0.11;96.55;101338.90;1743992;82;25488;-56
2022/12/04 04:28:36;;;;;;;58.15;24.63;;;;;;;0.11;96.58;101342.37;1744256;81;27312;-52
2022/12/04 04:31:13;;;;;;;60.80;23.22;;;;;;;0.12;96.56;101340.52;1744012;82;25396;-54
2022/12/04 04:34:10;;;;;;;61.28;23.73;;;;;;;0.11;96.52;101348.21;1743598;82;25387;-54
2022/12/04 04:37:05;;;;;;;64.75;23.73;;;;;;;0.12;96.66;101348.00;1710974;83;25565;-55
2022/12/04 04:39:49;;;;;;;62.33;23.75;;;;;;;0.13;96.64;101344.81;1710796;83;25652;-54
2022/12/04 04:42:29;;;;;;;58.85;23.57;;;;;;;0.14;96.65;101346.45;1710970;83;27522;-55
2022/12/04 04:45:09;;;;;;;62.78;23.77;;;;;;;0.13;96.64;101336.83;1710950;83;25656;-52
2022/12/04 04:47:50;;;;;;;68.12;22.82;;;;;;;0.13;96.63;101338.16;1670164;85;25480;-54
2022/12/04 04:50:18;;;;;;;58.05;24.05;;;;;;;0.12;96.61;101345.83;1670191;85;25475;-54
2022/12/04 04:52:49;;;;;;;61.23;24.15;;;;;;;0.13;96.81;101338.97;1647452;85;25529;-52
2022/12/04 04:55:18;;;;;;;53.70;22.98;;;;;;;0.12;96.61;101345.34;1668849;85;27446;-54
2022/12/04 04:57:45;;;;;;;58.33;22.50;;;;;;;0.07;96.58;101333.19;1670369;85;25503;-55
2022/12/04 05:00:18;;;;;;;60.92;23.62;;;;;;;0.06;96.65;101340.86;1670209;85;25685;-56
2022/12/04 05:02:45;;;;;;;58.42;22.40;;;;;;;0.05;96.59;101339.73;1670294;85;25619;-53
2022/12/04 05:05:12;;;;;;;60.75;23.77;;;;;;;0.04;96.73;101337.60;1667897;85;25502;-53
2022/12/04 05:07:38;;;;;;;60.45;23.50;;;;;;;0.05;96.69;101342.40;1657904;86;27530;-57
2022/12/04 05:10:08;;;;;;;56.48;24.00;;;;;;;0.06;96.73;101345.37;1657807;86;25594;-55
2022/12/04 05:12:34;;;;;;;59.13;22.67;;;;;;;0.04;96.70;101345.58;1658032;86;35073;-54
2022/12/04 05:15:01;;;;;;;54.18;22.45;;;;;;;0.04;96.70;101352.76;1650719;86;25599;-53
2022/12/04 05:17:27;;;;;;;51.77;21.77;;;;;;;0.03;96.67;101345.80;1650780;86;25516;-54
2022/12/04 05:19:53;;;;;;;55.48;22.87;;;;;;;0.03;96.79;101355.91;1650745;86;27334;-53
2022/12/04 05:22:32;;;;;;;62.67;23.30;;;;;;;0.00;96.59;101341.73;1650679;86;25883;-56
2022/12/04 05:24:59;;;;;;;53.63;21.45;;;;;;;0.01;96.74;101343.34;1694947;83;25449;-56
2022/12/04 05:27:27;;;;;;;54.83;23.62;;;;;;;0.00;96.57;101349.71;1710706;83;25647;-55
2022/12/04 05:29:56;;;;;;;57.08;21.20;;;;;;;0.01;96.61;101347.86;1710762;83;25570;-54
2022/12/04 05:32:26;;;;;;;54.75;21.93;;;;;;;-0.01;96.57;101352.05;1710860;83;27903;-57
2022/12/04 05:34:54;;;;;;;49.98;22.37;;;;;;;-0.02;96.51;101351.74;1710608;83;25389;-52
2022/12/04 05:37:21;;;;;;;58.98;23.07;;;;;;;-0.03;96.62;101354.92;1710733;83;25488;-53
2022/12/04 05:39:47;;;;;;;54.88;23.00;;;;;;;-0.04;96.60;101357.27;1710644;83;25938;-55
2022/12/04 05:42:14;;;;;;;52.90;21.62;;;;;;;-0.03;96.55;101363.42;1710756;83;25644;-53
2022/12/04 05:44:40;;;;;;;56.33;21.40;;;;;;;-0.04;96.59;101356.47;1710655;83;27373;-52
2022/12/04 05:47:06;;;;;;;55.40;22.73;;;;;;;-0.05;96.71;101349.01;1710664;83;30980;-52
2022/12/04 05:49:34;;;;;;;56.60;22.75;;;;;;;-0.06;96.59;101363.32;1710705;83;25481;-56
2022/12/04 05:52:03;;;;;;;53.28;21.23;;;;;;;-0.05;96.88;101380.92;1710616;83;25620;-56
2022/12/04 05:54:30;;;;;;;48.10;20.80;;;;;;;-0.06;96.67;101369.16;1710853;83;25402;-56
2022/12/04 05:56:56;;;;;;;52.88;21.75;;;;;;;-0.07;96.71;101373.68;1710651;83;27377;-56
2022/12/04 05:59:22;;;;;;;56.03;22.20;;;;;;;-0.04;96.69;101363.11;1710629;83;30472;-57
2022/12/04 06:01:49;;;;;;;63.42;22.27;;;;;;;-0.04;96.74;101367.91;1710692;83;25637;-55
2022/12/04 06:04:15;;;;;;;58.38;21.65;;;;;;;-0.03;96.77;101369.55;1710628;83;25514;-56
2022/12/04 06:06:42;;;;;;;57.10;22.93;;;;;;;-0.03;96.70;101360.77;1710614;83;25663;-52
2022/12/04 06:09:08;;;;;;;57.00;22.45;;;;;;;-0.04;96.59;101369.77;1710708;83;27482;-56
2022/12/04 06:11:38;;;;;;;53.30;22.20;;;;;;;-0.04;96.69;101362.59;1710624;83;25554;-55
2022/12/04 06:14:07;;;;;;;54.88;22.87;;;;;;;-0.02;96.74;101361.89;1710789;83;25618;-56
2022/12/04 06:16:38;;;;;;;55.73;22.32;;;;;;;-0.01;96.69;101364.83;1710924;83;25603;-55
2022/12/04 06:19:09;;;;;;;57.27;22.93;;;;;;;0.01;96.68;101363.81;1710777;83;25613;-55
2022/12/04 06:21:38;;;;;;;53.60;20.52;;;;;;;0.01;96.62;101364.63;1710754;83;27325;-56
2022/12/04 06:24:07;;;;;;;51.48;21.80;;;;;;;0.01;96.60;101374.45;1710755;83;30475;-53
2022/12/04 06:26:34;;;;;;;59.40;21.77;;;;;;;0.00;96.51;101376.31;1688644;83;25601;-54
2022/12/04 06:29:00;;;;;;;45.30;21.20;;;;;;;-0.01;96.52;101377.33;1710689;83;25573;-57
2022/12/04 06:31:28;;;;;;;61.90;23.30;;;;;;;0.01;96.60;101389.09;1710730;83;32367;-52
2022/12/04 06:33:57;;;;;;;58.25;23.22;;;;;;;0.03;96.58;101396.34;1710831;83;28153;-53
2022/12/04 06:36:24;;;;;;;64.00;23.38;;;;;;;0.00;96.51;101389.61;1710809;83;25580;-57
2022/12/04 06:38:54;;;;;;;55.75;23.00;;;;;;;0.02;96.49;101400.85;1710863;83;25596;-55
2022/12/04 06:41:21;;;;;;;57.38;22.95;;;;;;;0.03;96.45;101413.63;1710932;83;25444;-53
2022/12/04 06:43:50;;;;;;;60.35;22.22;;;;;;;0.04;96.51;101408.62;1710875;83;25422;-55
2022/12/04 06:46:21;;;;;;;56.73;23.18;;;;;;;0.04;96.51;101413.95;1710931;83;26947;-56
2022/12/04 06:48:48;;;;;;;56.50;23.25;;;;;;;0.04;96.50;101416.08;1710789;83;25609;-55
2022/12/04 06:51:20;;;;;;;60.85;24.27;;;;;;;0.04;96.42;101408.62;1710799;83;25598;-52
2022/12/04 06:53:47;;;;;;;55.10;22.80;;;;;;;0.03;96.43;101395.01;1710507;83;25554;-53
2022/12/04 06:56:17;;;;;;;57.65;22.77;;;;;;;0.03;96.55;101389.16;1710867;83;25568;-52
2022/12/04 06:58:50;;;;;;;65.15;23.40;;;;;;;0.04;96.56;101393.99;1710873;83;27405;-55
2022/12/04 07:01:21;;;;;;;55.83;23.18;;;;;;;0.03;96.49;101398.48;1710739;83;25614;-54
2022/12/04 07:03:48;;;;;;;54.77;21.70;;;;;;;0.02;96.51;101400.85;1710800;83;25602;-56
2022/12/04 07:06:26;;;;;;;51.65;20.95;;;;;;;0.02;96.48;101396.02;1722025;81;25567;-53
2022/12/04 07:09:04;;;;;;;50.83;21.15;;;;;;;-0.01;96.34;101406.06;1744371;82;25645;-53
2022/12/04 07:11:31;;;;;;;56.10;21.80;;;;;;;0.00;96.39;101402.91;1744560;81;27338;-53
2022/12/04 07:13:58;;;;;;;49.08;20.05;;;;;;;0.01;96.41;101399.20;1744222;81;25615;-54
2022/12/04 07:16:28;;;;;;;55.17;22.37;;;;;;;0.01;96.33;101411.70;1744330;82;25409;-56
2022/12/04 07:18:56;;;;;;;54.53;22.45;;;;;;;-0.02;96.23;101427.55;1744406;82;25557;-54
2022/12/04 07:21:26;;;;;;;49.35;19.60;;;;;;;-0.03;96.17;101400.67;1744330;82;25432;-54
2022/12/04 07:23:56;;;;;;;53.55;22.37;;;;;;;-0.05;96.14;101396.89;1744314;82;27468;-55
2022/12/04 07:26:25;;;;;;;45.85;21.82;;;;;;;-0.05;96.22;101395.56;1744215;82;25543;-57
2022/12/04 07:28:52;;;;;;;46.00;20.30;;;;;;;-0.03;96.25;101396.68;1744305;81;25488;-54
2022/12/04 07:31:22;;;;;;;45.70;19.70;;;;;;;-0.04;96.10;101399.83;1744229;82;25649;-54
2022/12/04 07:33:49;;;;;;;55.88;23.20;;;;;;;-0.05;96.12;101392.06;1744269;82;25373;-57
2022/12/04 07:36:19;;;;;;;46.85;20.92;;;;;;;-0.03;96.15;101392.69;1744289;82;27495;-55
2022/12/04 07:38:45;;;;;;;;;;;;;;;-0.01;96.22;101400.75;1746819;82;25462;-57
2022/12/04 07:41:13;;;;;;;46.65;21.75;;;;;;;0.00;96.18;101392.27;1744295;82;25436;-55
2022/12/04 07:43:40;;;;;;;49.80;22.17;;;;;;;0.00;96.10;101402.91;1744227;82;25629;-54
2022/12/04 07:46:14;;;;;;;43.40;20.60;;;;;;;0.01;96.04;101405.05;1744297;81;25623;-54
2022/12/04 07:48:41;;;;;;;46.95;21.62;;;;;;;-0.02;95.96;101399.63;1744328;82;27417;-54
2022/12/04 07:51:20;;;;;;;49.08;22.27;;;;;;;0.01;96.09;101400.53;1744192;82;25669;-57
2022/12/04 07:53:49;;;;;;;48.65;21.10;;;;;;;0.03;96.21;101400.33;1744260;82;25522;-56
2022/12/04 07:56:16;;;;;;;51.73;20.57;;;;;;;0.05;96.15;101408.41;1744508;82;25979;-56
2022/12/04 07:58:43;;;;;;;47.17;21.37;;;;;;;0.06;95.93;101404.71;1744279;82;25569;-55
2022/12/04 08:01:19;;;;;;;46.90;22.50;;;;;;;0.05;95.83;101410.23;1744276;82;27690;-57
2022/12/04 08:03:49;;;;;;;51.95;23.65;;;;;;;0.03;95.84;101410.97;1742609;82;25445;-55
2022/12/04 08:06:19;;;;;;;53.10;22.50;;;;;;;0.04;95.90;101408.10;1744220;82;25472;-57
2022/12/04 08:08:48;;;;;;;48.38;21.65;;;;;;;0.03;95.82;101399.80;1744334;81;25596;-55
2022/12/04 08:11:22;;;;;;;47.15;23.10;;;;;;;0.06;95.83;101406.56;1744559;82;25614;-57
2022/12/04 08:14:00;;;;;;;44.53;20.97;;;;;;;0.05;95.79;101412.41;1744423;82;27360;-56
2022/12/04 08:16:32;;;;;;;68.75;36.75;;;;;;;0.07;95.90;101406.36;1744336;82;25174;-53
2022/12/04 08:19:02;;;;;;;50.08;24.52;;;;;;;0.08;95.81;101403.17;1744415;82;25565;-55
2022/12/04 08:21:33;;;;;;;50.05;23.55;;;;;;;0.07;95.71;101408.17;1744288;82;25592;-56
2022/12/04 08:24:07;;;;;;;44.08;21.52;;;;;;;0.06;95.72;101408.70;1744332;82;25550;-56
2022/12/04 08:26:33;;;;;;;51.42;22.07;;;;;;;0.07;95.73;101401.03;1744345;82;27325;-56
2022/12/04 08:29:05;;;;;;;49.53;24.18;;;;;;;0.08;95.69;101414.62;1744197;82;27186;-57
2022/12/04 08:31:36;;;;;;;50.38;22.90;;;;;;;0.09;95.67;101415.45;1744358;82;25403;-57
2022/12/04 08:34:06;;;;;;;51.75;23.27;;;;;;;0.09;95.73;101420.78;1744285;82;25474;-55
2022/12/04 08:36:36;;;;;;;48.45;23.45;;;;;;;0.09;95.63;101414.13;1744350;82;25584;-56
2022/12/04 08:39:04;;;;;;;48.48;22.87;;;;;;;0.09;95.67;101425.58;1744208;82;27366;-56
2022/12/04 08:41:32;;;;;;;55.48;24.95;;;;;;;0.10;95.62;101423.23;1744187;82;25806;-57
2022/12/04 08:44:00;;;;;;;53.80;23.42;;;;;;;0.12;95.69;101424.33;1744283;81;25460;-58
2022/12/04 08:46:30;;;;;;;52.00;24.27;;;;;;;0.12;95.62;101419.00;1744227;82;25525;-57
2022/12/04 08:48:58;;;;;;;47.62;23.42;;;;;;;0.13;95.69;101413.99;1744253;81;25425;-54
2022/12/04 08:51:30;;;;;;;49.75;23.18;;;;;;;0.12;95.67;101413.68;1744141;81;27385;-54
2022/12/04 08:54:02;;;;;;;47.65;23.12;;;;;;;0.16;95.78;101418.89;1744178;82;25566;-57
2022/12/04 08:56:33;;;;;;;47.40;23.18;;;;;;;0.18;95.71;101420.30;1744211;82;25461;-57
2022/12/04 08:59:05;;;;;;;52.50;25.37;;;;;;;0.18;95.73;101418.97;1744149;82;25404;-55
2022/12/04 09:01:31;;;;;;;47.80;23.55;;;;;;;0.20;95.68;101420.62;1744183;82;25442;-55
2022/12/04 09:03:59;;;;;;;49.60;24.75;;;;;;;0.20;95.60;101417.95;1744137;82;27316;-54
2022/12/04 09:06:27;;;;;;;57.03;25.92;;;;;;;0.17;95.58;101406.72;1736187;82;25609;-56
2022/12/04 09:08:57;;;;;;;50.80;24.18;;;;;;;0.20;95.64;101416.10;1710868;83;25642;-57
2022/12/04 09:11:31;;;;;;;57.20;26.40;;;;;;;0.21;95.73;101411.62;1710727;83;25397;-56
2022/12/04 09:14:03;;;;;;;53.45;24.67;;;;;;;0.25;95.73;101410.95;1710695;83;25453;-56
2022/12/04 09:16:32;;;;;;;57.27;25.20;;;;;;;0.27;95.63;101407.56;1710674;83;28224;-55
2022/12/04 09:18:58;;;;;;;52.53;25.95;;;;;;;0.25;95.66;101398.18;1710515;83;25749;-57
2022/12/04 09:21:25;;;;;;;49.10;24.43;;;;;;;0.31;95.61;101410.13;1710664;83;25550;-56
2022/12/04 09:23:51;;;;;;;48.52;24.25;;;;;;;0.33;95.53;101404.59;1710640;83;27410;-55
2022/12/04 09:26:30;;;;;;;54.05;23.75;;;;;;;0.34;95.50;101404.88;1710728;83;25469;-53
2022/12/04 09:29:00;;;;;;;48.02;23.12;;;;;;;0.36;95.50;101408.16;1710911;83;27375;-54
2022/12/04 09:31:27;;;;;;;47.15;22.48;;;;;;;0.36;95.32;101409.49;1710638;83;25576;-58
2022/12/04 09:33:53;;;;;;;48.92;23.50;;;;;;;0.36;95.31;101410.82;1710706;83;25452;-57
2022/12/04 09:36:20;;;;;;;52.65;23.12;;;;;;;0.39;95.40;101406.90;1710696;83;26009;-57
2022/12/04 09:38:51;;;;;;;46.05;22.98;;;;;;;0.39;95.37;101400.25;1710815;83;25393;-57
2022/12/04 09:41:28;;;;;;;43.20;21.70;;;;;;;0.39;95.25;101398.39;1710764;83;27317;-56
2022/12/04 09:44:08;;;;;;;44.18;22.22;;;;;;;0.38;95.23;101394.64;1710667;83;25587;-55
2022/12/04 09:46:55;;;;;;;47.15;22.65;;;;;;;0.39;95.20;101390.93;1711026;83;25525;-53
2022/12/04 09:49:53;;;;;;;44.53;22.70;;;;;;;0.39;95.17;101388.27;1710495;83;25437;-57
2022/12/04 09:52:44;;;;;;;45.35;23.20;;;;;;;0.39;95.16;101387.74;1710934;83;25551;-55
2022/12/04 09:55:15;;;;;;;42.38;21.37;;;;;;;0.39;95.25;101392.27;1710762;83;27344;-56
2022/12/04 09:57:46;;;;;;;43.28;21.77;;;;;;;0.43;95.37;101394.81;1706768;83;25597;-52
2022/12/04 10:00:17;;;;;;;43.63;21.25;;;;;;;0.41;95.27;101384.38;1688573;83;25641;-54
2022/12/04 10:03:04;;;;;;;42.40;20.68;;;;;;;0.44;95.26;101383.12;1710821;83;25939;-54
2022/12/04 10:05:48;;;;;;;45.65;21.57;;;;;;;0.43;95.22;101370.86;1709955;82;25600;-57
2022/12/04 10:08:27;;;;;;;46.50;22.50;;;;;;;0.45;95.33;101366.94;1710768;83;28139;-56
2022/12/04 10:11:19;;;;;;;46.45;22.55;;;;;;;0.48;95.40;101371.03;1711055;83;25554;-57
2022/12/04 10:14:06;;;;;;;42.38;21.80;;;;;;;0.52;95.42;101377.02;1710722;83;25463;-56
2022/12/04 10:16:55;;;;;;;42.95;21.80;;;;;;;0.56;95.37;101380.06;1710837;83;25608;-55
2022/12/04 10:19:39;;;;;;;46.90;21.02;;;;;;;0.59;95.31;101379.63;1708602;83;25474;-57
2022/12/04 10:22:23;;;;;;;42.75;21.42;;;;;;;0.59;95.14;101380.97;1707146;83;27348;-56
2022/12/04 10:25:00;;;;;;;49.83;22.98;;;;;;;0.58;95.10;101382.02;1710850;83;25582;-55
2022/12/04 10:27:53;;;;;;;47.17;22.27;;;;;;;0.62;95.18;101383.73;1710913;83;25557;-56
2022/12/04 10:30:25;;;;;;;41.53;22.02;;;;;;;0.62;95.01;101375.22;1710859;83;25558;-56
2022/12/04 10:33:06;;;;;;;39.00;22.67;;;;;;;0.64;94.97;101366.48;1710838;83;25575;-55
2022/12/04 10:35:34;;;;;;;44.18;22.82;;;;;;;0.64;94.99;101369.67;1631181;84;28159;-56
2022/12/04 10:38:12;;;;;;;32.88;17.27;;;;;;;0.66;95.08;101372.41;1627546;88;25631;-53
2022/12/04 10:40:49;;;;;;;46.80;25.60;;;;;;;0.68;95.10;101365.53;1625662;88;25784;-59
2022/12/04 10:43:39;;;;;;;44.73;22.32;;;;;;;0.72;95.23;101358.23;1627608;88;26534;-59
2022/12/04 10:46:13;;;;;;;43.48;22.75;;;;;;;0.77;95.12;101366.92;1627269;88;25620;-53
2022/12/04 10:48:43;;;;;;;41.55;21.93;;;;;;;0.77;94.87;101358.92;1627596;88;27361;-55
2022/12/04 10:51:20;;;;;;;42.90;21.68;;;;;;;0.80;94.81;101358.99;1627466;88;27150;-55
2022/12/04 10:53:48;;;;;;;44.40;25.02;;;;;;;0.80;94.57;101364.31;1627505;88;25703;-55
2022/12/04 10:56:19;;;;;;;40.80;21.93;;;;;;;0.81;94.69;101350.79;1627474;88;25520;-56
2022/12/04 10:58:59;;;;;;;41.70;21.95;;;;;;;0.81;94.50;101348.65;1627604;88;25617;-55
2022/12/04 11:01:28;;;;;;;40.98;22.82;;;;;;;0.81;94.40;101354.78;1627605;88;27317;-56
2022/12/04 11:04:00;;;;;;;39.85;21.90;;;;;;;0.82;94.25;101346.27;1627561;88;25510;-56
2022/12/04 11:06:27;;;;;;;40.48;22.45;;;;;;;0.82;94.37;101352.92;1627534;88;25625;-57
2022/12/04 11:08:55;;;;;;;39.08;21.42;;;;;;;0.81;94.39;101330.81;1661945;86;26780;-56
2022/12/04 11:11:32;;;;;;;39.92;21.65;;;;;;;0.83;94.42;101334.59;1676381;81;25690;-56
2022/12/04 11:14:18;;;;;;;42.67;23.83;;;;;;;0.82;94.21;101333.78;1754797;81;28111;-56
2022/12/04 11:16:49;;;;;;;39.45;22.25;;;;;;;0.81;94.17;101328.15;1754726;81;25580;-56
2022/12/04 11:19:25;;;;;;;35.13;20.62;;;;;;;0.80;94.19;101331.86;1754834;81;25621;-54
2022/12/04 11:21:57;;;;;;;41.68;21.90;;;;;;;0.81;94.29;101334.80;1754611;81;25619;-54
2022/12/04 11:24:34;;;;;;;41.85;22.42;;;;;;;0.79;94.27;101326.22;1752262;81;25243;-55
2022/12/04 11:27:03;;;;;;;46.35;25.72;;;;;;;0.82;94.38;101324.95;1749336;81;27361;-54
2022/12/04 11:29:37;;;;;;;39.80;21.80;;;;;;;0.85;94.44;101317.87;1754575;81;25384;-52
2022/12/04 11:32:06;;;;;;;37.55;21.33;;;;;;;0.86;94.36;101314.19;1754694;81;25523;-53
2022/12/04 11:34:39;;;;;;;51.53;26.37;;;;;;;0.86;94.32;101310.19;1754819;81;25627;-53
2022/12/04 11:37:16;;;;;;;41.20;21.95;;;;;;;0.87;94.17;101317.12;1754896;81;25606;-56
2022/12/04 11:39:44;;;;;;;40.10;21.60;;;;;;;0.87;94.21;101321.95;1746584;81;27345;-57
2022/12/04 11:42:24;;;;;;;38.73;20.27;;;;;;;0.85;94.08;101322.70;1754959;81;25558;-56
2022/12/04 11:45:02;;;;;;;38.67;20.25;;;;;;;0.85;94.01;101321.86;1754742;81;25551;-59
2022/12/04 11:47:32;;;;;;;38.48;20.08;;;;;;;0.81;93.99;101325.48;1754604;81;25627;-59
2022/12/04 11:50:15;;;;;;;42.48;23.47;;;;;;;0.80;94.03;101330.53;1754849;81;25373;-60